Time;durP1;ratioP1;P1;durP2;ratioP2;P2;SDS_P1;SDS_P2;PMS_P1;PMS_P2;Temp;Humidity;BMP_temperature;BMP_pressure;BME280_temperature;BME280_humidity;BME280_pressure;Samples;Min_cycle;Max_cycle;Signal;HPM_P1;HPM_P2
2021/12/23 08:56:56;;;;;;;3.67;3.13;;;;;;;-3.57;99.57;98921.72;5107211;28;20556;-80
2021/12/23 08:59:24;;;;;;;10.73;6.97;;;;;;;-3.20;100.00;98861.94;5140813;27;39885;-79
2021/12/23 09:01:52;;;;;;;16.43;7.87;;;;;;;-2.33;100.00;98908.69;5089375;28;41983;-79
2021/12/23 09:04:20;;;;;;;14.90;6.83;;;;;;;-1.94;100.00;98908.25;5123580;27;41763;-79
2021/12/23 09:06:48;;;;;;;14.90;7.37;;;;;;;-1.59;96.65;98899.16;5089597;28;42457;-80
2021/12/23 09:09:16;;;;;;;17.90;8.63;;;;;;;-1.22;93.72;98910.75;5082400;28;40891;-79
2021/12/23 09:11:44;;;;;;;12.97;6.27;;;;;;;-0.95;91.47;98911.22;5049147;28;42001;-78
2021/12/23 09:14:13;;;;;;;16.53;8.97;;;;;;;-0.79;89.56;98887.56;5087979;28;42116;-79
2021/12/23 09:16:40;;;;;;;21.17;8.80;;;;;;;-0.46;88.03;98899.13;5090209;28;41687;-78
2021/12/23 09:19:09;;;;;;;14.63;8.03;;;;;;;-0.27;86.88;98896.19;5123252;27;39972;-78
2021/12/23 09:21:37;;;;;;;15.37;8.87;;;;;;;-0.12;86.03;98891.53;5106482;28;41767;-79
2021/12/23 09:24:06;;;;;;;16.80;9.93;;;;;;;0.05;85.27;98906.84;5121831;27;42422;-79
2021/12/23 09:26:44;;;;;;;12.73;7.50;;;;;;;0.17;84.20;98904.00;5104954;28;42196;-80
2021/12/23 09:29:18;;;;;;;13.03;8.17;;;;;;;0.18;83.36;98895.31;5105687;28;40257;-78
2021/12/23 09:34:31;;;;;;;15.73;8.33;;;;;;;0.06;83.00;98872.13;5105943;28;42628;-81
2021/12/23 09:36:58;;;;;;;19.93;9.47;;;;;;;0.30;82.97;98902.88;5088480;28;42579;-80
2021/12/23 09:39:27;;;;;;;16.50;9.13;;;;;;;0.27;82.72;98876.88;5105607;28;39907;-81
2021/12/23 09:41:54;;;;;;;17.50;10.80;;;;;;;0.37;82.21;98884.53;5106405;28;40577;-80
2021/12/23 09:44:24;;;;;;;20.43;10.30;;;;;;;0.31;81.79;98873.31;5087940;28;42143;-81
2021/12/23 09:46:55;;;;;;;20.67;9.47;;;;;;;0.38;81.98;98878.41;5105820;28;41282;-80
2021/12/23 09:49:23;;;;;;;16.07;8.23;;;;;;;0.37;81.22;98876.72;5121978;27;39910;-80
2021/12/23 09:51:51;;;;;;;19.17;9.77;;;;;;;0.28;81.05;98856.91;5105705;28;41520;-81
2021/12/23 09:54:20;;;;;;;14.13;9.20;;;;;;;0.25;81.25;98857.81;5089086;28;41640;-81
2021/12/23 09:56:48;;;;;;;13.13;8.97;;;;;;;0.42;81.15;98883.50;5088489;28;42189;-81
2021/12/23 09:59:16;;;;;;;19.57;10.17;;;;;;;0.47;80.99;98878.22;5107560;28;39897;-80
2021/12/23 10:01:48;;;;;;;14.60;7.83;;;;;;;0.50;79.01;98885.94;5089081;28;41569;-80
2021/12/23 10:04:16;;;;;;;14.83;9.67;;;;;;;0.54;78.95;98890.22;5123059;27;42777;-80
2021/12/23 10:06:51;;;;;;;17.80;8.43;;;;;;;0.47;78.99;98866.06;5134078;27;42046;-81
2021/12/23 10:09:36;;;;;;;17.53;7.97;;;;;;;0.58;79.00;98864.06;5076795;28;38984;-89
2021/12/23 10:12:54;;;;;;;19.07;9.47;;;;;;;0.38;78.93;98821.09;5087684;28;40970;-81
2021/12/23 10:31:45;;;;;;;18.63;8.33;;;;;;;0.92;75.93;98829.38;5076256;28;39071;-89
2021/12/23 10:37:14;;;;;;;15.83;8.67;;;;;;;1.14;75.63;98829.72;5075540;28;42155;-88
2021/12/23 10:39:44;;;;;;;16.17;8.17;;;;;;;1.09;75.08;98816.81;5075385;28;42167;-87
2021/12/23 10:42:15;;;;;;;22.30;9.97;;;;;;;1.19;74.11;98838.28;5075264;28;42709;-90
2021/12/23 10:44:49;;;;;;;13.43;8.23;;;;;;;1.16;74.09;98804.44;5091901;28;40583;-88
2021/12/23 10:47:32;;;;;;;18.70;9.57;;;;;;;1.22;74.05;98802.56;5074448;28;42728;-86
2021/12/23 10:50:17;;;;;;;17.03;8.17;;;;;;;1.17;74.12;98798.34;5092481;28;42011;-87
2021/12/23 10:52:50;;;;;;;18.67;10.17;;;;;;;1.28;73.81;98807.59;5074823;28;38950;-87
2021/12/23 11:01:31;;;;;;;14.40;8.57;;;;;;;1.45;73.33;98788.91;5077121;28;41939;-83
2021/12/23 11:04:04;;;;;;;16.90;8.23;;;;;;;1.63;73.10;98798.81;5077489;28;38846;-86
2021/12/23 11:06:38;;;;;;;16.00;7.73;;;;;;;1.58;73.09;98785.06;5128934;27;43019;-86
2021/12/23 11:09:35;;;;;;;18.83;8.60;;;;;;;1.62;72.58;98775.38;5061969;28;42063;-91
2021/12/23 11:30:07;;;;;;;15.70;7.97;;;;;;;2.06;71.52;98771.50;5071999;28;44460;-87
2021/12/23 11:36:02;;;;;;;18.47;8.80;;;;;;;2.15;70.65;98761.63;5054805;28;41810;-84
2021/12/23 11:38:38;;;;;;;18.70;9.50;;;;;;;2.13;70.35;98746.91;5054370;28;40278;-87
2021/12/23 11:41:18;;;;;;;16.23;8.67;;;;;;;2.17;70.31;98740.69;5102245;28;40953;-91
2021/12/23 11:43:51;;;;;;;13.20;8.17;;;;;;;2.22;70.30;98727.50;5056698;28;42014;-89
2021/12/23 11:46:22;;;;;;;15.00;7.63;;;;;;;2.38;70.05;98734.78;5054669;28;41158;-89
2021/12/23 11:48:53;;;;;;;18.37;8.73;;;;;;;2.38;69.49;98723.47;5079533;28;40234;-88
2021/12/23 11:51:30;;;;;;;16.20;8.27;;;;;;;2.40;69.57;98719.91;5068827;28;43134;-84
2021/12/23 11:53:59;;;;;;;13.80;7.33;;;;;;;2.57;69.28;98722.00;5053468;28;42433;-85
2021/12/23 11:56:29;;;;;;;16.97;8.43;;;;;;;2.66;69.24;98729.53;5049398;28;41756;-83
2021/12/23 11:59:01;;;;;;;13.63;8.63;;;;;;;2.69;69.03;98720.75;5048448;28;39067;-91
2021/12/23 12:01:32;;;;;;;16.67;9.10;;;;;;;2.69;69.24;98715.50;5084349;28;40584;-89
2021/12/23 12:04:02;;;;;;;15.50;8.40;;;;;;;2.79;69.32;98716.91;5054769;28;41827;-86
2021/12/23 12:06:38;;;;;;;15.23;7.33;;;;;;;2.65;69.13;98683.38;5053444;28;41145;-92
2021/12/23 12:10:27;;;;;;;14.43;7.33;;;;;;;2.42;68.49;98634.50;5068855;28;40764;-88
2021/12/23 12:13:02;;;;;;;16.97;9.33;;;;;;;2.44;68.35;98640.53;5007715;28;41857;-89
2021/12/23 12:15:53;;;;;;;14.57;7.60;;;;;;;2.44;68.07;98632.69;5064575;28;41853;-86
2021/12/23 12:18:24;;;;;;;15.30;8.50;;;;;;;2.60;68.13;98655.69;5068276;28;42369;-88
2021/12/23 12:20:55;;;;;;;13.93;7.03;;;;;;;2.72;68.68;98678.81;5067182;28;38996;-86
2021/12/23 12:23:30;;;;;;;14.93;8.20;;;;;;;2.91;68.21;98706.03;5056778;28;41812;-85
2021/12/23 12:26:01;;;;;;;19.57;8.07;;;;;;;2.88;67.65;98691.28;5053464;28;41877;-88
2021/12/23 12:28:37;;;;;;;15.47;7.70;;;;;;;3.04;67.86;98702.09;5054035;28;42073;-85
2021/12/23 12:31:21;;;;;;;12.70;7.17;;;;;;;3.18;67.94;98699.84;5071933;28;39506;-92
2021/12/23 12:34:04;;;;;;;14.53;7.17;;;;;;;3.30;67.91;98697.72;5053143;28;41611;-87
2021/12/23 12:36:40;;;;;;;11.70;6.93;;;;;;;3.18;67.70;98675.44;5059462;28;41565;-80
2021/12/23 12:39:23;;;;;;;14.83;6.87;;;;;;;3.25;67.64;98684.78;5094086;28;42645;-85
2021/12/23 12:41:59;;;;;;;16.47;7.13;;;;;;;3.20;67.39;98684.97;5084774;28;41631;-82
2021/12/23 12:44:40;;;;;;;15.97;7.67;;;;;;;3.30;67.83;98693.31;5068127;28;40462;-83
2021/12/23 12:47:15;;;;;;;15.33;7.40;;;;;;;3.31;67.85;98694.19;5075480;28;41724;-89
2021/12/23 12:49:46;;;;;;;15.77;7.13;;;;;;;3.31;67.30;98679.34;5072133;28;41472;-82
2021/12/23 12:52:18;;;;;;;12.97;6.63;;;;;;;3.33;67.51;98676.66;5080165;28;38998;-84
2021/12/23 12:54:56;;;;;;;14.10;7.60;;;;;;;3.33;67.46;98661.81;5057272;28;40839;-87
2021/12/23 12:57:31;;;;;;;15.23;7.27;;;;;;;3.36;67.39;98666.06;5040571;28;41857;-86
2021/12/23 13:00:18;;;;;;;13.83;6.87;;;;;;;3.30;67.55;98642.75;5058906;28;41600;-87
2021/12/23 13:02:51;;;;;;;12.87;7.33;;;;;;;3.41;67.45;98664.16;5052684;28;38963;-81
2021/12/23 13:05:26;;;;;;;15.10;8.37;;;;;;;3.36;67.43;98656.44;5069233;28;42535;-81
2021/12/23 13:08:23;;;;;;;25.47;12.47;;;;;;;3.40;67.37;98662.44;5068721;28;41992;-82
2021/12/23 13:11:20;;;;;;;15.13;7.93;;;;;;;3.39;67.21;98660.72;5068858;28;41352;-82
2021/12/23 13:14:01;;;;;;;15.40;8.07;;;;;;;3.30;67.26;98637.50;5069323;28;40076;-83
2021/12/23 13:16:51;;;;;;;14.77;7.47;;;;;;;3.31;67.02;98626.13;5052740;28;41840;-81
2021/12/23 13:19:29;;;;;;;14.70;7.77;;;;;;;3.35;66.98;98632.94;5060726;28;42600;-88
2021/12/23 13:21:58;;;;;;;12.30;7.03;;;;;;;3.39;66.96;98632.78;5068690;28;42825;-83
2021/12/23 13:24:28;;;;;;;16.50;7.07;;;;;;;3.30;67.36;98603.50;5068164;28;40244;-90
2021/12/23 13:26:58;;;;;;;16.57;7.67;;;;;;;3.46;67.31;98625.56;5055913;28;40427;-88
2021/12/23 13:29:28;;;;;;;14.60;7.67;;;;;;;3.39;67.12;98616.22;5075234;28;42728;-81
2021/12/23 13:31:59;;;;;;;13.40;7.37;;;;;;;3.46;67.01;98625.56;5055278;28;41788;-86
2021/12/23 13:34:29;;;;;;;14.17;7.00;;;;;;;3.46;67.33;98625.56;5068762;28;39345;-83
2021/12/23 13:36:58;;;;;;;16.33;7.57;;;;;;;3.44;67.00;98622.16;5051364;28;41721;-85
2021/12/23 13:39:28;;;;;;;14.23;6.40;;;;;;;3.36;67.13;98603.25;5051686;28;43158;-85
2021/12/23 13:41:58;;;;;;;11.43;6.30;;;;;;;3.44;67.20;98601.22;5052912;28;41341;-84
2021/12/23 13:44:29;;;;;;;10.43;6.47;;;;;;;3.44;67.08;98594.22;5055131;28;41695;-90
2021/12/23 13:47:03;;;;;;;14.50;7.23;;;;;;;3.59;67.14;98616.31;5060295;28;40592;-91
2021/12/23 13:49:38;;;;;;;14.13;7.20;;;;;;;3.56;67.19;98611.22;5074836;28;43492;-82
2021/12/23 13:52:07;;;;;;;15.63;8.00;;;;;;;3.38;67.29;98572.63;5055157;28;41112;-85
2021/12/23 13:54:37;;;;;;;14.60;6.70;;;;;;;3.55;66.96;98604.28;5054342;28;39021;-82
2021/12/23 13:57:10;;;;;;;17.53;7.00;;;;;;;3.61;67.32;98612.72;5072000;28;42127;-80
2021/12/23 13:59:37;;;;;;;13.07;6.63;;;;;;;3.57;67.34;98589.38;5054403;28;43241;-83
2021/12/23 14:02:09;;;;;;;14.40;6.47;;;;;;;3.72;67.16;98606.22;5076115;28;43093;-80
2021/12/23 14:04:48;;;;;;;13.23;6.60;;;;;;;3.73;67.36;98592.22;5071671;28;38960;-79
2021/12/23 14:07:20;;;;;;;12.13;6.80;;;;;;;3.60;66.96;98576.13;5054151;28;41527;-81
2021/12/23 14:09:52;;;;;;;11.23;7.27;;;;;;;3.61;67.14;98575.22;5070925;28;43615;-86
2021/12/23 14:12:23;;;;;;;11.37;5.97;;;;;;;3.62;67.20;98584.78;5079511;28;40879;-82
2021/12/23 14:14:58;;;;;;;11.77;6.83;;;;;;;3.57;67.13;98561.41;5069446;28;40114;-86
